YM Keelung — VRFI2 — position and weather

sailwx.info

Track history (hours):
 
Tides and Currents Weather Stations Pressure Air Temp Water Temp Dewpoint Dewpoint Depression Visibility Wind Speed Wind Dir Waves Ship Positions

YM Keelung

Last reported at 2017-Dec-13 12:40 UTC. Time now 2017-Dec-17 21:53 UTC.
Position N 25°27' E 120°45'.

Length 260 m; draft 9.1 m.

Type: Cargo ship. MMSI: 477261800.

Date/timePositionNaut miles runAvg speedWind from/ knotsBaromVisibWave heightAir tempDewpointWater temp
2017-Dec-13 12:40N 25°27' E 120°45'315.3
2017-Dec-13 12:30N 25°24' E 120°44'11813.5
2017-Dec-13 03:46N 23°35' E 119°55'5 9.9
2017-Dec-13 03:13N 23°29' E 119°55'2 9.8
2017-Dec-13 03:00N 23°27' E 119°54'5 9.8
2017-Dec-13 02:29N 23°22' E 119°54'2210.5
2017-Dec-13 00:25N 23°00' E 119°54'511.4
2017-Dec-13 00:00N 22°56' E 119°55'611.8
2017-Dec-12 23:30N 22°50' E 119°55'612.3
2017-Dec-12 23:01N 22°45' E 119°59'713.1
2017-Dec-12 22:30N 22°40' E 120°04'612.9
2017-Dec-12 22:00N 22°35' E 120°09'612.0
2017-Dec-12 21:30N 22°33' E 120°15'4 6.9
2017-Dec-12 20:52N 22°33' E 120°20'0 0.3
2017-Dec-12 20:26N 22°33' E 120°20'0 0.0
2017-Dec-12 19:56N 22°33' E 120°20'0 0.1
2017-Dec-12 19:26N 22°33' E 120°20'0 0.1
2017-Dec-12 18:50N 22°33' E 120°20'0 0.1
2017-Dec-12 18:26N 22°33' E 120°20'0 0.1
2017-Dec-12 17:56N 22°33' E 120°20'0 0.0
2017-Dec-12 17:26N 22°33' E 120°20'0 0.0
2017-Dec-12 16:56N 22°33' E 120°20'0 0.0
2017-Dec-12 16:26N 22°33' E 120°20'0 0.0
2017-Dec-12 15:56N 22°33' E 120°20'0 0.1
2017-Dec-12 15:26N 22°33' E 120°20'0 0.1
2017-Dec-12 14:56N 22°33' E 120°20'0 0.0
2017-Dec-12 14:26N 22°33' E 120°20'0 0.0
2017-Dec-12 13:56N 22°33' E 120°20'0 0.0
2017-Dec-12 13:26N 22°33' E 120°20'0 0.0
2017-Dec-12 12:56N 22°33' E 120°20'1 2.0
2017-Dec-12 12:23N 22°33' E 120°18'3 7.8
2017-Dec-12 12:00N 22°32' E 120°15'2 4.8
2017-Dec-12 11:30N 22°32' E 120°13'3 5.8
2017-Dec-12 11:00N 22°30' E 120°10'1 1.5
2017-Dec-12 10:30N 22°30' E 120°10'1 1.3
2017-Dec-12 10:00N 22°29' E 120°11'5 9.5
2017-Dec-12 09:29N 22°26' E 120°08'510.0
2017-Dec-12 09:00N 22°21' E 120°08'5 9.7
2017-Dec-12 08:30N 22°16' E 120°08'  
Track history (hours):
 
Tides and Currents Weather Stations Pressure Air Temp Water Temp Dewpoint Dewpoint Depression Visibility Wind Speed Wind Dir Waves Ship Positions

YM Keelung

Last reported at 2017-Dec-13 12:40 UTC. Time now 2017-Dec-17 21:53 UTC.
Position N 25°27' E 120°45'.

Length 260 m; draft 9.1 m.

Type: Cargo ship. MMSI: 477261800.

Date/timePositionNaut miles runAvg speedWind from/ knotsBaromVisibWave heightAir tempDewpointWater temp
2017-Dec-13 12:40N 25°27' E 120°45'315.3
2017-Dec-13 12:30N 25°24' E 120°44'11813.5
2017-Dec-13 03:46N 23°35' E 119°55'5 9.9
2017-Dec-13 03:13N 23°29' E 119°55'2 9.8
2017-Dec-13 03:00N 23°27' E 119°54'5 9.8
2017-Dec-13 02:29N 23°22' E 119°54'2210.5
2017-Dec-13 00:25N 23°00' E 119°54'511.4
2017-Dec-13 00:00N 22°56' E 119°55'611.8
2017-Dec-12 23:30N 22°50' E 119°55'612.3
2017-Dec-12 23:01N 22°45' E 119°59'713.1
2017-Dec-12 22:30N 22°40' E 120°04'612.9
2017-Dec-12 22:00N 22°35' E 120°09'612.0
2017-Dec-12 21:30N 22°33' E 120°15'4 6.9
2017-Dec-12 20:52N 22°33' E 120°20'0 0.3
2017-Dec-12 20:26N 22°33' E 120°20'0 0.0
2017-Dec-12 19:56N 22°33' E 120°20'0 0.1
2017-Dec-12 19:26N 22°33' E 120°20'0 0.1
2017-Dec-12 18:50N 22°33' E 120°20'0 0.1
2017-Dec-12 18:26N 22°33' E 120°20'0 0.1
2017-Dec-12 17:56N 22°33' E 120°20'0 0.0
2017-Dec-12 17:26N 22°33' E 120°20'0 0.0
2017-Dec-12 16:56N 22°33' E 120°20'0 0.0
2017-Dec-12 16:26N 22°33' E 120°20'0 0.0
2017-Dec-12 15:56N 22°33' E 120°20'0 0.1
2017-Dec-12 15:26N 22°33' E 120°20'0 0.1
2017-Dec-12 14:56N 22°33' E 120°20'0 0.0
2017-Dec-12 14:26N 22°33' E 120°20'0 0.0
2017-Dec-12 13:56N 22°33' E 120°20'0 0.0
2017-Dec-12 13:26N 22°33' E 120°20'0 0.0
2017-Dec-12 12:56N 22°33' E 120°20'1 2.0
2017-Dec-12 12:23N 22°33' E 120°18'3 7.8
2017-Dec-12 12:00N 22°32' E 120°15'2 4.8
2017-Dec-12 11:30N 22°32' E 120°13'3 5.8
2017-Dec-12 11:00N 22°30' E 120°10'1 1.5
2017-Dec-12 10:30N 22°30' E 120°10'1 1.3
2017-Dec-12 10:00N 22°29' E 120°11'5 9.5
2017-Dec-12 09:29N 22°26' E 120°08'510.0
2017-Dec-12 09:00N 22°21' E 120°08'5 9.7
2017-Dec-12 08:30N 22°16' E 120°08'  

Dump ship's entire track history